createdAt,value
2018-12-10T00:01:58.406Z,5.70
2018-12-10T00:04:26.925Z,5.70
2018-12-10T00:06:55.441Z,5.70
2018-12-10T00:09:23.928Z,5.70
2018-12-10T00:11:52.463Z,5.70
2018-12-10T00:14:21.073Z,5.70
2018-12-10T00:16:49.575Z,5.60
2018-12-10T00:19:18.141Z,5.60
2018-12-10T00:21:46.643Z,5.60
2018-12-10T00:24:15.170Z,5.60
2018-12-10T00:26:43.723Z,5.60
2018-12-10T00:29:12.461Z,5.60
2018-12-10T00:31:40.960Z,5.60
2018-12-10T00:34:09.487Z,5.60
2018-12-10T00:36:38.014Z,5.50
2018-12-10T00:39:07.654Z,5.60
2018-12-10T00:41:36.186Z,5.60
2018-12-10T00:44:04.710Z,5.60
2018-12-10T00:46:33.248Z,5.60
2018-12-10T00:49:01.752Z,5.60
2018-12-10T00:51:30.291Z,5.60
2018-12-10T00:53:58.883Z,5.60
2018-12-10T00:56:27.493Z,5.70
2018-12-10T00:58:56.006Z,5.60
2018-12-10T01:01:24.636Z,5.50
2018-12-10T01:03:53.224Z,5.60
2018-12-10T01:06:21.723Z,5.60
2018-12-10T01:08:50.218Z,5.60
2018-12-10T01:11:18.751Z,5.70
2018-12-10T01:13:47.246Z,5.70
2018-12-10T01:16:15.752Z,5.60
2018-12-10T01:18:44.254Z,5.60
2018-12-10T01:21:12.752Z,5.80
2018-12-10T01:23:41.306Z,5.80
2018-12-10T01:26:09.866Z,5.70
2018-12-10T01:28:38.390Z,5.60
2018-12-10T01:31:06.884Z,5.60
2018-12-10T01:33:35.410Z,5.60
2018-12-10T01:36:03.980Z,5.50
2018-12-10T01:38:32.486Z,5.50
2018-12-10T01:41:00.992Z,5.50
2018-12-10T01:43:29.529Z,5.50
2018-12-10T01:45:58.018Z,5.40
2018-12-10T01:48:26.620Z,5.40
2018-12-10T01:50:55.151Z,5.50
2018-12-10T01:53:23.685Z,5.50
2018-12-10T01:55:52.258Z,5.50
2018-12-10T01:58:20.875Z,5.50
2018-12-10T02:00:49.377Z,5.40
2018-12-10T02:03:17.917Z,5.40
2018-12-10T02:05:46.434Z,5.30
2018-12-10T02:08:14.913Z,5.30
2018-12-10T02:10:43.445Z,5.30
2018-12-10T02:13:12.423Z,5.40
2018-12-10T02:15:40.915Z,5.30
2018-12-10T02:18:09.466Z,5.20
2018-12-10T02:20:37.943Z,5.10
2018-12-10T02:23:06.427Z,5.10
2018-12-10T02:25:34.975Z,5.00
2018-12-10T02:28:03.459Z,5.10
2018-12-10T02:30:32.111Z,5.10
2018-12-10T02:33:00.667Z,5.10
2018-12-10T02:35:29.224Z,5.00
2018-12-10T02:37:57.727Z,5.00
2018-12-10T02:40:26.506Z,5.00
2018-12-10T02:42:55.038Z,5.00
2018-12-10T02:45:23.517Z,5.00
2018-12-10T02:47:52.060Z,5.00
2018-12-10T02:50:20.553Z,4.90
2018-12-10T02:52:49.046Z,4.90
2018-12-10T02:55:17.569Z,4.90
2018-12-10T02:57:46.282Z,4.90
2018-12-10T03:00:14.825Z,5.00
2018-12-10T03:02:43.347Z,5.00
2018-12-10T03:05:12.382Z,4.90
2018-12-10T03:07:41.411Z,4.90
2018-12-10T03:10:09.978Z,5.00
2018-12-10T03:12:38.549Z,5.00
2018-12-10T03:15:07.100Z,4.90
2018-12-10T03:17:35.652Z,4.80
2018-12-10T03:20:04.227Z,4.90
2018-12-10T03:22:32.800Z,4.90
2018-12-10T03:25:01.342Z,4.90
2018-12-10T03:27:29.855Z,4.90
2018-12-10T03:29:58.352Z,4.90
2018-12-10T03:32:26.849Z,4.90
2018-12-10T03:34:55.392Z,4.90
2018-12-10T03:37:23.941Z,4.90
2018-12-10T03:39:52.471Z,4.90
2018-12-10T03:42:20.981Z,4.90
2018-12-10T03:44:49.459Z,4.90
2018-12-10T03:47:17.985Z,4.90
2018-12-10T03:49:46.525Z,4.90
2018-12-10T03:52:15.033Z,4.90
2018-12-10T03:54:43.534Z,5.00
2018-12-10T03:57:12.612Z,5.00
2018-12-10T03:59:41.129Z,4.90
2018-12-10T04:02:09.652Z,4.90
2018-12-10T04:04:38.206Z,4.90
2018-12-10T04:07:06.696Z,4.90
2018-12-10T04:09:35.190Z,4.90
2018-12-10T04:12:03.742Z,4.90
2018-12-10T04:14:32.249Z,4.90
2018-12-10T04:17:00.764Z,4.90
2018-12-10T04:19:29.289Z,4.90
2018-12-10T04:21:57.766Z,4.90
2018-12-10T04:24:26.298Z,4.90
2018-12-10T04:26:54.828Z,4.90
2018-12-10T04:29:23.321Z,4.90
2018-12-10T04:31:51.810Z,4.90
2018-12-10T04:34:20.299Z,4.80
2018-12-10T04:36:48.864Z,4.80
2018-12-10T04:39:17.359Z,4.80
2018-12-10T04:41:45.888Z,4.80
2018-12-10T04:44:14.453Z,4.90
2018-12-10T04:46:43.729Z,4.80
2018-12-10T04:49:12.279Z,4.80
2018-12-10T04:51:40.861Z,4.70
2018-12-10T04:54:09.421Z,4.70
2018-12-10T04:56:37.922Z,4.70
2018-12-10T04:59:06.479Z,4.80
2018-12-10T05:01:35.707Z,4.80
2018-12-10T05:04:04.853Z,4.80
2018-12-10T05:06:33.467Z,4.70
2018-12-10T05:09:02.005Z,4.70
2018-12-10T05:11:30.512Z,4.80
2018-12-10T05:13:59.061Z,4.80
2018-12-10T05:16:27.678Z,4.70
2018-12-10T05:18:56.197Z,4.70
2018-12-10T05:21:24.727Z,4.80
2018-12-10T05:23:53.309Z,4.80
2018-12-10T05:26:21.926Z,4.70
2018-12-10T05:28:50.462Z,4.80
2018-12-10T05:31:18.968Z,4.80
2018-12-10T05:33:47.533Z,4.80
2018-12-10T05:36:16.072Z,4.70
2018-12-10T05:38:44.718Z,4.80
2018-12-10T05:41:13.558Z,4.70
2018-12-10T05:43:42.552Z,4.70
2018-12-10T05:46:11.120Z,4.70
2018-12-10T05:48:39.674Z,4.70
2018-12-10T05:51:08.215Z,4.70
2018-12-10T05:53:36.814Z,4.80
2018-12-10T05:56:05.456Z,4.70
2018-12-10T05:58:33.988Z,4.70
2018-12-10T06:01:02.516Z,4.70
2018-12-10T06:03:31.103Z,4.70
2018-12-10T06:05:59.712Z,4.60
2018-12-10T06:08:28.208Z,4.70
2018-12-10T06:10:56.821Z,4.60
2018-12-10T06:13:25.348Z,4.60
2018-12-10T06:15:53.878Z,4.60
2018-12-10T06:18:22.410Z,4.50
2018-12-10T06:20:50.953Z,4.60
2018-12-10T06:23:19.474Z,4.60
2018-12-10T06:25:48.084Z,4.60
2018-12-10T06:28:16.685Z,4.60
2018-12-10T06:30:45.304Z,4.50
2018-12-10T06:33:13.844Z,4.60
2018-12-10T06:35:42.494Z,4.50
2018-12-10T06:38:11.079Z,4.40
2018-12-10T06:40:39.700Z,4.20
2018-12-10T06:43:08.262Z,4.10
2018-12-10T06:45:36.856Z,4.00
2018-12-10T06:48:05.368Z,3.90
2018-12-10T06:50:34.026Z,3.80
2018-12-10T06:53:02.545Z,3.80
2018-12-10T06:55:31.087Z,3.70
2018-12-10T06:57:59.673Z,3.70
2018-12-10T07:00:28.188Z,3.60
2018-12-10T07:02:56.787Z,3.60
2018-12-10T07:05:25.456Z,3.60
2018-12-10T07:07:54.034Z,3.60
2018-12-10T07:10:22.564Z,3.50
2018-12-10T07:12:51.159Z,3.50
2018-12-10T07:15:20.542Z,3.50
2018-12-10T07:17:49.180Z,3.50
2018-12-10T07:20:17.727Z,3.50
2018-12-10T07:22:46.286Z,3.50
2018-12-10T07:25:14.845Z,3.50
2018-12-10T07:27:43.358Z,3.50
2018-12-10T07:30:12.005Z,3.40
2018-12-10T07:32:40.663Z,3.40
2018-12-10T07:35:09.218Z,3.40
2018-12-10T07:37:37.788Z,3.40
2018-12-10T07:40:06.761Z,3.40
2018-12-10T07:42:36.213Z,3.30
2018-12-10T07:45:05.314Z,3.30
2018-12-10T07:47:33.852Z,3.30
2018-12-10T07:50:02.494Z,3.30
2018-12-10T07:52:31.038Z,3.20
2018-12-10T07:54:59.693Z,3.10
2018-12-10T07:57:28.227Z,3.10
2018-12-10T07:59:56.875Z,3.00
2018-12-10T08:02:25.432Z,3.00
2018-12-10T08:04:53.955Z,3.00
2018-12-10T08:07:22.591Z,3.00
2018-12-10T08:09:51.090Z,2.90
2018-12-10T08:12:19.634Z,2.90
2018-12-10T08:14:48.149Z,2.90
2018-12-10T08:17:16.739Z,2.90
2018-12-10T08:19:45.261Z,2.90
2018-12-10T08:22:13.812Z,3.00
2018-12-10T08:24:42.325Z,3.20
2018-12-10T08:27:10.832Z,3.20
2018-12-10T08:29:39.375Z,3.30
2018-12-10T08:32:07.886Z,3.20
2018-12-10T08:34:41.395Z,3.30
2018-12-10T08:37:06.984Z,3.30
2018-12-10T08:39:36.345Z,3.30
2018-12-10T08:42:04.857Z,3.30
2018-12-10T08:44:33.355Z,3.30
2018-12-10T08:47:01.869Z,3.30
2018-12-10T08:49:30.463Z,3.30
2018-12-10T08:51:59.063Z,3.20
2018-12-10T08:54:27.555Z,3.20
2018-12-10T08:56:56.100Z,3.30
2018-12-10T08:59:24.792Z,3.30
2018-12-10T09:01:53.425Z,3.40
2018-12-10T09:04:22.239Z,3.40
2018-12-10T09:06:51.009Z,3.40
2018-12-10T09:09:19.539Z,3.40
2018-12-10T09:11:48.089Z,3.40
2018-12-10T09:14:16.555Z,3.50
2018-12-10T09:16:45.121Z,3.50
2018-12-10T09:19:13.676Z,3.50
2018-12-10T09:21:42.335Z,3.40
2018-12-10T09:24:10.909Z,3.50
2018-12-10T09:26:39.408Z,3.50
2018-12-10T09:29:08.001Z,3.50
2018-12-10T09:31:36.535Z,3.60
2018-12-10T09:34:06.027Z,3.60
2018-12-10T09:36:34.555Z,3.70
2018-12-10T09:39:04.905Z,3.70
2018-12-10T09:41:33.434Z,3.80
2018-12-10T09:44:02.037Z,3.80
2018-12-10T09:46:30.591Z,3.90
2018-12-10T09:48:59.111Z,4.00
2018-12-10T09:51:27.657Z,4.00
2018-12-10T09:53:56.185Z,4.00
2018-12-10T09:56:24.717Z,4.10
2018-12-10T09:58:53.264Z,4.10
2018-12-10T10:01:21.807Z,4.20
2018-12-10T10:03:50.341Z,4.20
2018-12-10T10:06:18.863Z,4.30
2018-12-10T10:08:49.577Z,4.30
2018-12-10T10:11:18.921Z,4.30
2018-12-10T10:13:47.414Z,4.20
2018-12-10T10:16:16.120Z,4.40
2018-12-10T10:18:44.671Z,4.40
2018-12-10T10:21:13.167Z,4.40
2018-12-10T10:23:41.714Z,4.40
2018-12-10T10:26:10.285Z,4.40
2018-12-10T10:28:38.832Z,4.40
2018-12-10T10:31:07.451Z,4.30
2018-12-10T10:33:36.051Z,4.30
2018-12-10T10:36:04.568Z,4.30
2018-12-10T10:38:33.108Z,4.30
2018-12-10T10:41:01.670Z,4.30
2018-12-10T10:43:30.156Z,4.30
2018-12-10T10:45:58.781Z,4.40
2018-12-10T10:48:27.356Z,4.30
2018-12-10T10:50:55.916Z,4.30
2018-12-10T10:53:24.612Z,4.30
2018-12-10T10:55:53.115Z,4.20
2018-12-10T10:58:23.621Z,4.30
2018-12-10T11:00:57.601Z,4.40
2018-12-10T11:03:31.574Z,4.40
2018-12-10T11:06:00.101Z,4.40
2018-12-10T11:08:28.696Z,4.40
2018-12-10T11:10:57.203Z,4.40
2018-12-10T11:13:25.809Z,4.40
2018-12-10T11:15:54.389Z,4.40
2018-12-10T11:18:22.971Z,4.40
2018-12-10T11:20:51.542Z,4.40
2018-12-10T11:23:20.122Z,4.30
2018-12-10T11:25:48.624Z,4.30
2018-12-10T11:28:17.204Z,4.30
2018-12-10T11:30:45.748Z,4.30
2018-12-10T11:33:14.295Z,4.20
2018-12-10T11:35:42.806Z,4.20
2018-12-10T11:38:11.505Z,4.30
2018-12-10T11:40:40.060Z,4.30
2018-12-10T11:43:08.601Z,4.30
2018-12-10T11:45:37.127Z,4.20
2018-12-10T11:48:05.682Z,4.30
2018-12-10T11:50:34.787Z,4.30
2018-12-10T11:53:03.312Z,4.30
2018-12-10T11:55:31.811Z,4.20
2018-12-10T11:58:00.393Z,4.30
2018-12-10T12:00:29.705Z,4.30
2018-12-10T12:02:58.603Z,4.40
2018-12-10T12:05:27.227Z,4.30
2018-12-10T12:07:56.007Z,4.30
2018-12-10T12:10:25.265Z,4.30
2018-12-10T12:12:53.932Z,4.30
2018-12-10T12:15:22.417Z,4.30
2018-12-10T12:17:50.926Z,4.40
2018-12-10T12:20:19.653Z,4.40
2018-12-10T12:22:48.323Z,4.40
2018-12-10T12:25:16.928Z,4.30
2018-12-10T12:27:45.529Z,4.30
2018-12-10T12:30:14.084Z,4.30
2018-12-10T12:32:42.636Z,4.40
2018-12-10T12:35:12.916Z,4.30
2018-12-10T12:37:42.233Z,4.40
2018-12-10T12:40:10.849Z,4.30
2018-12-10T12:42:39.372Z,4.30
2018-12-10T12:45:07.951Z,4.30
2018-12-10T12:47:36.449Z,4.40
2018-12-10T12:50:05.248Z,4.30
2018-12-10T12:52:33.783Z,4.30
2018-12-10T12:55:02.381Z,4.20
2018-12-10T12:57:30.921Z,4.30
2018-12-10T12:59:59.483Z,4.20
2018-12-10T13:02:27.982Z,4.30
2018-12-10T13:04:56.589Z,4.30
2018-12-10T13:07:25.163Z,4.30
2018-12-10T13:09:53.735Z,4.20
2018-12-10T13:12:22.293Z,4.30
2018-12-10T13:14:50.815Z,4.30
2018-12-10T13:17:19.337Z,4.30
2018-12-10T13:19:48.326Z,4.30
2018-12-10T13:22:16.961Z,4.30
2018-12-10T13:24:45.543Z,4.20
2018-12-10T13:27:14.183Z,4.30
2018-12-10T13:29:42.670Z,4.30
2018-12-10T13:32:14.059Z,4.20
2018-12-10T13:34:42.810Z,4.30
2018-12-10T13:37:11.355Z,4.30
2018-12-10T13:39:39.940Z,4.30
2018-12-10T13:42:08.482Z,4.30
2018-12-10T13:44:36.986Z,4.30
2018-12-10T13:47:05.569Z,4.30
2018-12-10T13:49:34.103Z,4.20
2018-12-10T13:52:02.680Z,4.20
2018-12-10T13:54:31.178Z,4.10
2018-12-10T13:56:59.738Z,4.20
2018-12-10T13:59:28.293Z,4.20
2018-12-10T14:01:56.856Z,4.10
2018-12-10T14:04:31.374Z,4.00
2018-12-10T14:06:59.977Z,4.00
2018-12-10T14:09:28.588Z,4.00
2018-12-10T14:11:57.242Z,3.90
2018-12-10T14:14:25.833Z,3.90
2018-12-10T14:16:54.659Z,3.90
2018-12-10T14:19:23.306Z,3.90
2018-12-10T14:21:51.850Z,3.80
2018-12-10T14:24:20.394Z,3.80
2018-12-10T14:26:48.966Z,3.70
2018-12-10T14:29:17.712Z,3.80
2018-12-10T14:31:46.192Z,3.80
2018-12-10T14:34:20.163Z,3.90
2018-12-10T14:36:48.828Z,3.80
2018-12-10T14:39:17.491Z,3.80
2018-12-10T14:41:46.050Z,3.80
2018-12-10T14:44:14.579Z,3.80
2018-12-10T14:46:43.208Z,3.90
2018-12-10T14:49:11.917Z,3.90
2018-12-10T14:51:40.446Z,3.90
2018-12-10T14:54:09.129Z,3.90
2018-12-10T14:56:37.772Z,3.80
2018-12-10T14:59:06.360Z,3.80
2018-12-10T15:01:34.880Z,3.80
2018-12-10T15:04:03.466Z,3.80
2018-12-10T15:06:32.079Z,3.80
2018-12-10T15:09:00.642Z,3.80
2018-12-10T15:11:29.456Z,3.80
2018-12-10T15:13:58.015Z,3.80
2018-12-10T15:16:27.167Z,3.80
2018-12-10T15:18:55.834Z,3.80
2018-12-10T15:21:24.499Z,3.80
2018-12-10T15:23:53.067Z,3.80
2018-12-10T15:26:21.588Z,3.70
2018-12-10T15:28:50.211Z,3.70
2018-12-10T15:31:18.805Z,3.60
2018-12-10T15:33:47.324Z,3.50
2018-12-10T15:36:15.851Z,3.60
2018-12-10T15:38:44.395Z,3.60
2018-12-10T15:41:12.951Z,3.70
2018-12-10T15:43:41.471Z,3.70
2018-12-10T15:46:10.056Z,3.70
2018-12-10T15:48:38.609Z,3.70
2018-12-10T15:51:07.248Z,3.70
2018-12-10T15:53:35.795Z,3.70
2018-12-10T15:56:04.344Z,3.60
2018-12-10T15:58:32.963Z,3.60
2018-12-10T16:01:01.559Z,3.70
2018-12-10T16:03:30.160Z,3.70
2018-12-10T16:05:58.688Z,3.60
2018-12-10T16:08:27.188Z,3.60
2018-12-10T16:10:55.760Z,3.70
2018-12-10T16:13:24.335Z,3.70
2018-12-10T16:15:53.002Z,3.60
2018-12-10T16:18:21.518Z,3.70
2018-12-10T16:20:50.319Z,3.60
2018-12-10T16:23:18.862Z,3.60
2018-12-10T16:25:47.388Z,3.60
2018-12-10T16:28:15.985Z,3.70
2018-12-10T16:30:44.706Z,3.60
2018-12-10T16:33:13.481Z,3.50
2018-12-10T16:35:42.229Z,3.40
2018-12-10T16:38:10.833Z,3.30
2018-12-10T16:40:39.861Z,3.40
2018-12-10T16:43:08.527Z,3.50
2018-12-10T16:45:37.062Z,3.40
2018-12-10T16:48:05.589Z,3.50
2018-12-10T16:50:34.193Z,3.50
2018-12-10T16:53:02.771Z,3.40
2018-12-10T16:55:31.295Z,3.50
2018-12-10T16:57:59.829Z,3.50
2018-12-10T17:00:29.186Z,3.50
2018-12-10T17:02:57.723Z,3.50
2018-12-10T17:05:29.801Z,3.50
2018-12-10T17:07:58.383Z,3.50
2018-12-10T17:10:26.987Z,3.50
2018-12-10T17:12:55.561Z,3.50
2018-12-10T17:15:24.214Z,3.50
2018-12-10T17:17:52.880Z,3.40
2018-12-10T17:20:21.406Z,3.40
2018-12-10T17:22:50.402Z,3.40
2018-12-10T17:25:18.973Z,3.40
2018-12-10T17:27:47.494Z,3.40
2018-12-10T17:30:16.180Z,3.30
2018-12-10T17:32:44.769Z,3.40
2018-12-10T17:35:13.321Z,3.30
2018-12-10T17:37:42.104Z,3.40
2018-12-10T17:40:10.665Z,3.40
2018-12-10T17:42:39.340Z,3.40
2018-12-10T17:45:09.168Z,3.30
2018-12-10T17:47:38.145Z,3.30
2018-12-10T17:50:09.276Z,3.30
2018-12-10T17:52:37.922Z,3.30
2018-12-10T17:55:06.657Z,3.20
2018-12-10T17:57:35.344Z,3.20
2018-12-10T18:00:04.562Z,3.20
2018-12-10T18:02:33.108Z,3.20
2018-12-10T18:05:01.687Z,3.20
2018-12-10T18:07:30.317Z,3.20
2018-12-10T18:09:58.900Z,3.20
2018-12-10T18:12:27.444Z,3.10
2018-12-10T18:14:55.980Z,3.10
2018-12-10T18:17:24.526Z,3.20
2018-12-10T18:19:53.311Z,3.20
2018-12-10T18:22:21.865Z,3.20
2018-12-10T18:24:50.376Z,3.20
2018-12-10T18:27:18.975Z,3.10
2018-12-10T18:29:47.622Z,3.10
2018-12-10T18:32:16.122Z,3.20
2018-12-10T18:34:44.656Z,3.20
2018-12-10T18:37:13.270Z,3.30
2018-12-10T18:39:41.842Z,3.30
2018-12-10T18:42:10.492Z,3.30
2018-12-10T18:44:39.151Z,3.30
2018-12-10T18:47:07.769Z,3.30
2018-12-10T18:49:36.364Z,3.30
2018-12-10T18:52:05.326Z,3.40
2018-12-10T18:54:35.199Z,3.40
2018-12-10T18:57:03.912Z,3.40
2018-12-10T18:59:32.467Z,3.40
2018-12-10T19:02:00.974Z,3.40
2018-12-10T19:04:29.518Z,3.30
2018-12-10T19:06:58.436Z,3.20
2018-12-10T19:09:27.724Z,3.20
2018-12-10T19:11:57.478Z,3.20
2018-12-10T19:14:26.237Z,3.10
2018-12-10T19:16:55.196Z,3.20
2018-12-10T19:19:24.079Z,3.30
2018-12-10T19:21:53.407Z,3.20
2018-12-10T19:24:22.077Z,3.30
2018-12-10T19:26:50.666Z,3.30
2018-12-10T19:29:19.178Z,3.30
2018-12-10T19:31:47.699Z,3.30
2018-12-10T19:34:16.323Z,3.20
2018-12-10T19:36:45.281Z,3.10
2018-12-10T19:39:13.821Z,3.10
2018-12-10T19:41:42.427Z,3.00
2018-12-10T19:44:10.989Z,3.00
2018-12-10T19:46:39.505Z,3.00
2018-12-10T19:49:08.192Z,3.10
2018-12-10T19:51:36.961Z,3.00
2018-12-10T19:54:05.504Z,3.10
2018-12-10T19:56:34.061Z,3.10
2018-12-10T19:59:02.591Z,3.20
2018-12-10T20:01:31.178Z,3.20
2018-12-10T20:03:59.710Z,3.20
2018-12-10T20:06:32.821Z,3.20
2018-12-10T20:09:01.453Z,3.20
2018-12-10T20:11:30.204Z,3.20
2018-12-10T20:13:58.710Z,3.30
2018-12-10T20:16:27.255Z,3.30
2018-12-10T20:18:56.929Z,3.20
2018-12-10T20:21:25.468Z,3.20
2018-12-10T20:23:54.085Z,3.20
2018-12-10T20:26:22.644Z,3.20
2018-12-10T20:28:51.237Z,3.20
2018-12-10T20:31:19.792Z,3.20
2018-12-10T20:33:48.430Z,3.10
2018-12-10T20:36:17.049Z,3.20
2018-12-10T20:38:45.702Z,3.10
2018-12-10T20:41:14.219Z,3.20
2018-12-10T20:43:42.783Z,3.10
2018-12-10T20:46:11.462Z,3.10
2018-12-10T20:48:40.004Z,3.10
2018-12-10T20:51:08.515Z,3.00
2018-12-10T20:53:37.089Z,3.10
2018-12-10T20:56:05.789Z,3.00
2018-12-10T20:58:34.344Z,3.00
2018-12-10T21:01:02.896Z,2.90
2018-12-10T21:03:31.472Z,2.90
2018-12-10T21:06:05.256Z,2.90
2018-12-10T21:08:33.839Z,3.00
2018-12-10T21:11:02.362Z,2.90
2018-12-10T21:13:31.360Z,2.90
2018-12-10T21:15:59.954Z,2.80
2018-12-10T21:18:28.550Z,2.80
2018-12-10T21:20:57.118Z,2.80
2018-12-10T21:23:25.652Z,2.80
2018-12-10T21:25:54.205Z,2.90
2018-12-10T21:28:22.812Z,2.90
2018-12-10T21:30:51.680Z,2.90
2018-12-10T21:33:20.272Z,2.90
2018-12-10T21:35:49.505Z,2.90
2018-12-10T21:38:18.380Z,2.90
2018-12-10T21:40:46.962Z,2.90
2018-12-10T21:43:15.533Z,2.90
2018-12-10T21:45:44.054Z,3.00
2018-12-10T21:48:12.594Z,2.90
2018-12-10T21:50:41.140Z,2.80
2018-12-10T21:53:09.740Z,2.90
2018-12-10T21:55:38.353Z,3.00
2018-12-10T21:58:06.882Z,2.80
2018-12-10T22:00:35.441Z,2.90
2018-12-10T22:03:04.020Z,3.00
2018-12-10T22:05:32.674Z,2.90
2018-12-10T22:08:01.412Z,2.90
2018-12-10T22:10:30.150Z,3.00
2018-12-10T22:12:59.508Z,3.10
2018-12-10T22:15:28.194Z,3.00
2018-12-10T22:17:57.168Z,3.00
2018-12-10T22:20:25.961Z,3.00
2018-12-10T22:22:55.128Z,3.00
2018-12-10T22:25:23.716Z,3.00
2018-12-10T22:27:52.398Z,3.00
2018-12-10T22:30:21.672Z,3.00
2018-12-10T22:32:50.988Z,2.90
2018-12-10T22:35:19.568Z,2.90
2018-12-10T22:37:48.196Z,3.00
2018-12-10T22:40:16.739Z,3.00
2018-12-10T22:42:45.261Z,2.90
2018-12-10T22:45:13.917Z,2.90
2018-12-10T22:47:42.697Z,2.90
2018-12-10T22:50:11.433Z,2.90
2018-12-10T22:52:40.009Z,2.90
2018-12-10T22:55:08.860Z,2.90
2018-12-10T22:57:37.568Z,2.90
2018-12-10T23:00:07.597Z,2.90
2018-12-10T23:02:36.193Z,2.90
2018-12-10T23:05:05.482Z,2.90
2018-12-10T23:07:34.013Z,2.90
2018-12-10T23:10:02.889Z,3.00
2018-12-10T23:12:31.512Z,2.90
2018-12-10T23:15:00.415Z,3.00
2018-12-10T23:17:29.377Z,2.90
2018-12-10T23:19:58.222Z,2.90
2018-12-10T23:22:27.073Z,3.00
2018-12-10T23:24:55.827Z,2.90
2018-12-10T23:27:24.633Z,2.90
2018-12-10T23:29:53.463Z,2.90
2018-12-10T23:32:22.277Z,2.80
2018-12-10T23:34:51.193Z,2.80
2018-12-10T23:37:20.016Z,2.90
2018-12-10T23:39:48.989Z,3.00
2018-12-10T23:42:17.853Z,2.90
2018-12-10T23:44:51.810Z,2.90
2018-12-10T23:47:20.649Z,2.90
2018-12-10T23:49:50.493Z,2.80
2018-12-10T23:52:19.307Z,2.90
2018-12-10T23:54:47.798Z,2.90
2018-12-10T23:57:33.151Z,2.80
